sensor_id;sensor_type;location;lat;lon;timestamp;temperature;humidity
1379;DHT22;683;48.738;9.226;2023-08-01T00:00:47;16.30;99.90
1379;DHT22;683;48.738;9.226;2023-08-01T00:03:14;16.30;99.90
1379;DHT22;683;48.738;9.226;2023-08-01T00:05:41;16.20;99.90
1379;DHT22;683;48.738;9.226;2023-08-01T00:08:11;16.20;99.90
1379;DHT22;683;48.738;9.226;2023-08-01T00:10:39;16.30;99.90
1379;DHT22;683;48.738;9.226;2023-08-01T00:13:06;16.20;99.90
1379;DHT22;683;48.738;9.226;2023-08-01T00:15:34;16.20;99.90
1379;DHT22;683;48.738;9.226;2023-08-01T00:18:01;16.10;99.90
1379;DHT22;683;48.738;9.226;2023-08-01T00:20:28;16.00;99.90
1379;DHT22;683;48.738;9.226;2023-08-01T00:22:55;16.00;99.90
1379;DHT22;683;48.738;9.226;2023-08-01T00:25:24;15.90;99.90
1379;DHT22;683;48.738;9.226;2023-08-01T00:27:51;15.90;99.90
1379;DHT22;683;48.738;9.226;2023-08-01T00:30:18;15.90;99.90
1379;DHT22;683;48.738;9.226;2023-08-01T00:32:45;15.80;99.90
1379;DHT22;683;48.738;9.226;2023-08-01T00:35:13;15.90;99.90
1379;DHT22;683;48.738;9.226;2023-08-01T00:37:40;15.90;99.90
1379;DHT22;683;48.738;9.226;2023-08-01T00:40:08;15.90;99.90
1379;DHT22;683;48.738;9.226;2023-08-01T00:42:37;15.90;99.90
1379;DHT22;683;48.738;9.226;2023-08-01T00:45:05;15.90;99.90
1379;DHT22;683;48.738;9.226;2023-08-01T00:47:33;15.90;99.90
1379;DHT22;683;48.738;9.226;2023-08-01T00:50:00;16.00;99.90
1379;DHT22;683;48.738;9.226;2023-08-01T00:52:28;16.00;99.90
1379;DHT22;683;48.738;9.226;2023-08-01T00:54:56;16.00;99.90
1379;DHT22;683;48.738;9.226;2023-08-01T00:57:23;16.10;99.90
1379;DHT22;683;48.738;9.226;2023-08-01T00:59:51;16.10;99.90
1379;DHT22;683;48.738;9.226;2023-08-01T01:02:19;16.20;99.90
1379;DHT22;683;48.738;9.226;2023-08-01T01:04:46;16.20;99.90
1379;DHT22;683;48.738;9.226;2023-08-01T01:07:15;16.20;99.90
1379;DHT22;683;48.738;9.226;2023-08-01T01:09:43;16.30;99.90
1379;DHT22;683;48.738;9.226;2023-08-01T01:12:10;16.30;99.90
1379;DHT22;683;48.738;9.226;2023-08-01T01:14:37;16.30;99.90
1379;DHT22;683;48.738;9.226;2023-08-01T01:17:06;16.40;99.90
1379;DHT22;683;48.738;9.226;2023-08-01T01:19:34;16.40;99.90
1379;DHT22;683;48.738;9.226;2023-08-01T01:22:03;16.40;99.90
1379;DHT22;683;48.738;9.226;2023-08-01T01:24:31;16.40;99.90
1379;DHT22;683;48.738;9.226;2023-08-01T01:26:59;16.40;99.90
1379;DHT22;683;48.738;9.226;2023-08-01T01:29:28;16.40;99.90
1379;DHT22;683;48.738;9.226;2023-08-01T01:31:55;16.40;99.90
1379;DHT22;683;48.738;9.226;2023-08-01T01:34:23;16.40;99.90
1379;DHT22;683;48.738;9.226;2023-08-01T01:36:50;16.30;99.90
1379;DHT22;683;48.738;9.226;2023-08-01T01:39:18;16.20;99.90
1379;DHT22;683;48.738;9.226;2023-08-01T01:41:46;16.00;99.90
1379;DHT22;683;48.738;9.226;2023-08-01T01:44:13;15.80;99.90
1379;DHT22;683;48.738;9.226;2023-08-01T01:46:40;15.70;99.90
1379;DHT22;683;48.738;9.226;2023-08-01T01:49:07;15.60;99.90
1379;DHT22;683;48.738;9.226;2023-08-01T01:51:34;15.60;99.90
1379;DHT22;683;48.738;9.226;2023-08-01T01:54:01;15.50;99.90
1379;DHT22;683;48.738;9.226;2023-08-01T01:56:30;15.50;99.90
1379;DHT22;683;48.738;9.226;2023-08-01T01:58:57;15.50;99.90
1379;DHT22;683;48.738;9.226;2023-08-01T02:01:24;15.50;99.90
1379;DHT22;683;48.738;9.226;2023-08-01T02:03:51;15.40;99.90
1379;DHT22;683;48.738;9.226;2023-08-01T02:06:18;15.40;99.90
1379;DHT22;683;48.738;9.226;2023-08-01T02:08:45;15.40;99.90
1379;DHT22;683;48.738;9.226;2023-08-01T02:11:13;15.40;99.90
1379;DHT22;683;48.738;9.226;2023-08-01T02:13:42;15.40;99.90
1379;DHT22;683;48.738;9.226;2023-08-01T02:16:09;15.40;99.90
1379;DHT22;683;48.738;9.226;2023-08-01T02:18:36;15.40;99.90
1379;DHT22;683;48.738;9.226;2023-08-01T02:21:03;15.40;99.90
1379;DHT22;683;48.738;9.226;2023-08-01T02:23:31;15.40;99.90
1379;DHT22;683;48.738;9.226;2023-08-01T02:25:59;15.40;99.90
1379;DHT22;683;48.738;9.226;2023-08-01T02:28:26;15.40;99.90
1379;DHT22;683;48.738;9.226;2023-08-01T02:30:54;15.40;99.90
1379;DHT22;683;48.738;9.226;2023-08-01T02:33:22;15.40;99.90
1379;DHT22;683;48.738;9.226;2023-08-01T02:35:49;15.40;99.90
1379;DHT22;683;48.738;9.226;2023-08-01T02:38:16;15.40;99.90
1379;DHT22;683;48.738;9.226;2023-08-01T02:40:43;15.40;99.90
1379;DHT22;683;48.738;9.226;2023-08-01T02:43:10;15.40;99.90
1379;DHT22;683;48.738;9.226;2023-08-01T02:45:37;15.40;99.90
1379;DHT22;683;48.738;9.226;2023-08-01T02:48:06;15.40;99.90
1379;DHT22;683;48.738;9.226;2023-08-01T02:50:33;15.40;99.90
1379;DHT22;683;48.738;9.226;2023-08-01T02:53:00;15.40;99.90
1379;DHT22;683;48.738;9.226;2023-08-01T02:55:27;15.50;99.90
1379;DHT22;683;48.738;9.226;2023-08-01T02:57:54;15.50;99.90
1379;DHT22;683;48.738;9.226;2023-08-01T03:00:21;15.50;99.90
1379;DHT22;683;48.738;9.226;2023-08-01T03:02:48;15.50;99.90
1379;DHT22;683;48.738;9.226;2023-08-01T03:05:17;15.50;99.90
1379;DHT22;683;48.738;9.226;2023-08-01T03:07:44;15.50;99.90
1379;DHT22;683;48.738;9.226;2023-08-01T03:10:11;15.50;99.90
1379;DHT22;683;48.738;9.226;2023-08-01T03:12:38;15.50;99.90
1379;DHT22;683;48.738;9.226;2023-08-01T03:15:07;15.60;99.90
1379;DHT22;683;48.738;9.226;2023-08-01T03:17:35;15.60;99.90
1379;DHT22;683;48.738;9.226;2023-08-01T03:20:02;15.60;99.90
1379;DHT22;683;48.738;9.226;2023-08-01T03:22:31;15.70;99.90
1379;DHT22;683;48.738;9.226;2023-08-01T03:24:58;15.70;99.90
1379;DHT22;683;48.738;9.226;2023-08-01T03:27:26;15.80;99.90
1379;DHT22;683;48.738;9.226;2023-08-01T03:29:53;15.80;99.90
1379;DHT22;683;48.738;9.226;2023-08-01T03:32:20;15.90;99.90
1379;DHT22;683;48.738;9.226;2023-08-01T03:34:48;16.00;99.90
1379;DHT22;683;48.738;9.226;2023-08-01T03:37:16;16.00;99.90
1379;DHT22;683;48.738;9.226;2023-08-01T03:39:45;16.00;99.90
1379;DHT22;683;48.738;9.226;2023-08-01T03:42:12;16.10;99.90
1379;DHT22;683;48.738;9.226;2023-08-01T03:44:39;16.10;99.90
1379;DHT22;683;48.738;9.226;2023-08-01T03:47:06;16.10;99.90
1379;DHT22;683;48.738;9.226;2023-08-01T03:49:33;16.20;99.90
1379;DHT22;683;48.738;9.226;2023-08-01T03:52:01;16.20;99.90
1379;DHT22;683;48.738;9.226;2023-08-01T03:54:28;16.20;99.90
1379;DHT22;683;48.738;9.226;2023-08-01T03:56:56;16.20;99.90
1379;DHT22;683;48.738;9.226;2023-08-01T03:59:23;16.30;99.90
1379;DHT22;683;48.738;9.226;2023-08-01T04:01:52;16.20;99.90
1379;DHT22;683;48.738;9.226;2023-08-01T04:04:19;16.30;99.90
1379;DHT22;683;48.738;9.226;2023-08-01T04:06:47;16.40;99.90
1379;DHT22;683;48.738;9.226;2023-08-01T04:09:14;16.40;99.90
1379;DHT22;683;48.738;9.226;2023-08-01T04:11:41;16.50;99.90
1379;DHT22;683;48.738;9.226;2023-08-01T04:14:09;16.40;99.90
1379;DHT22;683;48.738;9.226;2023-08-01T04:16:37;16.50;99.90
1379;DHT22;683;48.738;9.226;2023-08-01T04:19:04;16.50;99.90
1379;DHT22;683;48.738;9.226;2023-08-01T04:21:31;16.50;99.90
1379;DHT22;683;48.738;9.226;2023-08-01T04:23:58;16.60;99.90
1379;DHT22;683;48.738;9.226;2023-08-01T04:26:25;16.60;99.90
1379;DHT22;683;48.738;9.226;2023-08-01T04:28:52;16.60;99.90
1379;DHT22;683;48.738;9.226;2023-08-01T04:31:21;16.60;99.90
1379;DHT22;683;48.738;9.226;2023-08-01T04:33:48;16.60;99.90
1379;DHT22;683;48.738;9.226;2023-08-01T04:36:15;16.60;99.90
1379;DHT22;683;48.738;9.226;2023-08-01T04:38:42;16.70;99.90
1379;DHT22;683;48.738;9.226;2023-08-01T04:41:09;16.70;99.90
1379;DHT22;683;48.738;9.226;2023-08-01T04:43:36;16.70;99.90
1379;DHT22;683;48.738;9.226;2023-08-01T04:46:03;16.80;99.90
1379;DHT22;683;48.738;9.226;2023-08-01T04:48:32;16.80;99.90
1379;DHT22;683;48.738;9.226;2023-08-01T04:50:59;16.90;99.90
1379;DHT22;683;48.738;9.226;2023-08-01T04:53:26;16.90;99.90
1379;DHT22;683;48.738;9.226;2023-08-01T04:55:53;16.90;99.90
1379;DHT22;683;48.738;9.226;2023-08-01T04:58:20;17.00;99.90
1379;DHT22;683;48.738;9.226;2023-08-01T05:00:47;17.00;99.90
1379;DHT22;683;48.738;9.226;2023-08-01T05:03:14;17.10;99.90
1379;DHT22;683;48.738;9.226;2023-08-01T05:05:43;17.10;99.90
1379;DHT22;683;48.738;9.226;2023-08-01T05:08:10;17.10;99.90
1379;DHT22;683;48.738;9.226;2023-08-01T05:10:37;17.10;99.90
1379;DHT22;683;48.738;9.226;2023-08-01T05:13:05;17.20;99.90
1379;DHT22;683;48.738;9.226;2023-08-01T05:15:32;17.20;99.90
1379;DHT22;683;48.738;9.226;2023-08-01T05:17:59;17.20;99.90
1379;DHT22;683;48.738;9.226;2023-08-01T05:20:26;17.20;99.90
1379;DHT22;683;48.738;9.226;2023-08-01T05:22:58;17.30;99.90
1379;DHT22;683;48.738;9.226;2023-08-01T05:25:25;17.30;99.90
1379;DHT22;683;48.738;9.226;2023-08-01T05:27:53;17.40;99.90
1379;DHT22;683;48.738;9.226;2023-08-01T05:30:20;17.50;99.90
1379;DHT22;683;48.738;9.226;2023-08-01T05:32:47;17.40;99.90
1379;DHT22;683;48.738;9.226;2023-08-01T05:35:15;17.50;99.90
1379;DHT22;683;48.738;9.226;2023-08-01T05:37:42;17.50;99.90
1379;DHT22;683;48.738;9.226;2023-08-01T05:40:12;17.50;99.90
1379;DHT22;683;48.738;9.226;2023-08-01T05:42:39;17.60;99.90
1379;DHT22;683;48.738;9.226;2023-08-01T05:45:07;17.70;99.90
1379;DHT22;683;48.738;9.226;2023-08-01T05:47:34;17.70;99.90
1379;DHT22;683;48.738;9.226;2023-08-01T05:50:02;17.70;99.90
1379;DHT22;683;48.738;9.226;2023-08-01T05:52:30;17.70;99.90
1379;DHT22;683;48.738;9.226;2023-08-01T05:54:57;17.80;99.90
1379;DHT22;683;48.738;9.226;2023-08-01T05:57:26;17.90;99.90
1379;DHT22;683;48.738;9.226;2023-08-01T05:59:53;17.90;99.90
1379;DHT22;683;48.738;9.226;2023-08-01T06:02:20;18.00;99.90
1379;DHT22;683;48.738;9.226;2023-08-01T06:04:47;18.00;99.90
1379;DHT22;683;48.738;9.226;2023-08-01T06:07:14;18.10;99.90
1379;DHT22;683;48.738;9.226;2023-08-01T06:09:41;18.10;99.90
1379;DHT22;683;48.738;9.226;2023-08-01T06:12:08;18.20;99.90
1379;DHT22;683;48.738;9.226;2023-08-01T06:14:37;18.20;99.90
1379;DHT22;683;48.738;9.226;2023-08-01T06:17:04;18.20;99.90
1379;DHT22;683;48.738;9.226;2023-08-01T06:19:32;18.20;99.90
1379;DHT22;683;48.738;9.226;2023-08-01T06:21:59;18.20;99.90
1379;DHT22;683;48.738;9.226;2023-08-01T06:24:26;18.20;99.90
1379;DHT22;683;48.738;9.226;2023-08-01T06:26:53;18.20;99.90
1379;DHT22;683;48.738;9.226;2023-08-01T06:29:20;18.00;99.90
1379;DHT22;683;48.738;9.226;2023-08-01T06:31:49;17.60;99.90
1379;DHT22;683;48.738;9.226;2023-08-01T06:34:16;17.20;99.90
1379;DHT22;683;48.738;9.226;2023-08-01T06:36:43;16.80;99.90
1379;DHT22;683;48.738;9.226;2023-08-01T06:39:10;16.40;99.90
1379;DHT22;683;48.738;9.226;2023-08-01T06:41:37;16.20;99.90
1379;DHT22;683;48.738;9.226;2023-08-01T06:44:05;16.10;99.90
1379;DHT22;683;48.738;9.226;2023-08-01T06:46:32;16.00;99.90
1379;DHT22;683;48.738;9.226;2023-08-01T06:49:00;15.90;99.90
1379;DHT22;683;48.738;9.226;2023-08-01T06:51:28;15.80;99.90
1379;DHT22;683;48.738;9.226;2023-08-01T06:53:55;15.80;99.90
1379;DHT22;683;48.738;9.226;2023-08-01T06:56:23;15.70;99.90
1379;DHT22;683;48.738;9.226;2023-08-01T06:58:50;15.60;99.90
1379;DHT22;683;48.738;9.226;2023-08-01T07:01:17;15.50;99.90
1379;DHT22;683;48.738;9.226;2023-08-01T07:03:44;15.40;99.90
1379;DHT22;683;48.738;9.226;2023-08-01T07:06:13;15.50;99.90
1379;DHT22;683;48.738;9.226;2023-08-01T07:08:40;15.50;99.90
1379;DHT22;683;48.738;9.226;2023-08-01T07:11:07;15.50;99.90
1379;DHT22;683;48.738;9.226;2023-08-01T07:13:37;15.50;99.90
1379;DHT22;683;48.738;9.226;2023-08-01T07:16:04;15.60;99.90
1379;DHT22;683;48.738;9.226;2023-08-01T07:18:31;15.50;99.90
1379;DHT22;683;48.738;9.226;2023-08-01T07:21:02;15.50;99.90
1379;DHT22;683;48.738;9.226;2023-08-01T07:23:33;15.50;99.90
1379;DHT22;683;48.738;9.226;2023-08-01T07:26:01;15.40;99.90
1379;DHT22;683;48.738;9.226;2023-08-01T07:28:28;15.40;99.90
1379;DHT22;683;48.738;9.226;2023-08-01T07:30:59;15.30;99.90
1379;DHT22;683;48.738;9.226;2023-08-01T07:33:26;15.30;99.90
1379;DHT22;683;48.738;9.226;2023-08-01T07:35:54;15.30;99.90
1379;DHT22;683;48.738;9.226;2023-08-01T07:38:21;15.30;99.90
1379;DHT22;683;48.738;9.226;2023-08-01T07:40:50;15.30;99.90
1379;DHT22;683;48.738;9.226;2023-08-01T07:43:17;15.20;99.90
1379;DHT22;683;48.738;9.226;2023-08-01T07:45:44;15.10;99.90
1379;DHT22;683;48.738;9.226;2023-08-01T07:48:12;15.10;99.90
1379;DHT22;683;48.738;9.226;2023-08-01T07:50:39;15.10;99.90
1379;DHT22;683;48.738;9.226;2023-08-01T07:53:06;15.10;99.90
1379;DHT22;683;48.738;9.226;2023-08-01T07:55:33;15.20;99.90
1379;DHT22;683;48.738;9.226;2023-08-01T07:58:02;15.10;99.90
1379;DHT22;683;48.738;9.226;2023-08-01T08:00:29;15.20;99.90
1379;DHT22;683;48.738;9.226;2023-08-01T08:02:57;15.20;99.90
1379;DHT22;683;48.738;9.226;2023-08-01T08:05:24;15.20;99.90
1379;DHT22;683;48.738;9.226;2023-08-01T08:07:51;15.30;99.90
1379;DHT22;683;48.738;9.226;2023-08-01T08:10:19;15.30;99.90
1379;DHT22;683;48.738;9.226;2023-08-01T08:12:46;15.40;99.90
1379;DHT22;683;48.738;9.226;2023-08-01T08:15:14;15.40;99.90
1379;DHT22;683;48.738;9.226;2023-08-01T08:17:41;15.50;99.90
1379;DHT22;683;48.738;9.226;2023-08-01T08:20:09;15.50;99.90
1379;DHT22;683;48.738;9.226;2023-08-01T08:22:36;15.60;99.90
1379;DHT22;683;48.738;9.226;2023-08-01T08:25:04;15.60;99.90
1379;DHT22;683;48.738;9.226;2023-08-01T08:27:31;15.60;99.90
1379;DHT22;683;48.738;9.226;2023-08-01T08:29:58;15.60;99.90
1379;DHT22;683;48.738;9.226;2023-08-01T08:32:26;15.60;99.90
1379;DHT22;683;48.738;9.226;2023-08-01T08:34:54;15.60;99.90
1379;DHT22;683;48.738;9.226;2023-08-01T08:37:21;15.60;99.90
1379;DHT22;683;48.738;9.226;2023-08-01T08:39:48;15.70;99.90
1379;DHT22;683;48.738;9.226;2023-08-01T08:42:18;15.80;99.90
1379;DHT22;683;48.738;9.226;2023-08-01T08:44:50;16.00;99.90
1379;DHT22;683;48.738;9.226;2023-08-01T08:47:25;16.10;99.90
1379;DHT22;683;48.738;9.226;2023-08-01T08:49:56;16.40;99.90
1379;DHT22;683;48.738;9.226;2023-08-01T08:52:24;16.60;99.90
1379;DHT22;683;48.738;9.226;2023-08-01T08:54:52;16.80;99.90
1379;DHT22;683;48.738;9.226;2023-08-01T08:57:20;16.90;99.90
1379;DHT22;683;48.738;9.226;2023-08-01T08:59:48;16.80;99.90
1379;DHT22;683;48.738;9.226;2023-08-01T09:02:17;16.90;99.90
1379;DHT22;683;48.738;9.226;2023-08-01T09:04:44;17.10;99.90
1379;DHT22;683;48.738;9.226;2023-08-01T09:07:15;17.20;99.90
1379;DHT22;683;48.738;9.226;2023-08-01T09:09:43;17.20;99.90
1379;DHT22;683;48.738;9.226;2023-08-01T09:12:10;17.20;99.90
1379;DHT22;683;48.738;9.226;2023-08-01T09:14:38;17.20;99.90
1379;DHT22;683;48.738;9.226;2023-08-01T09:17:08;17.00;99.90
1379;DHT22;683;48.738;9.226;2023-08-01T09:19:35;16.90;99.90
1379;DHT22;683;48.738;9.226;2023-08-01T09:22:10;16.80;99.90
1379;DHT22;683;48.738;9.226;2023-08-01T09:24:50;16.70;99.90
1379;DHT22;683;48.738;9.226;2023-08-01T09:27:20;16.70;99.90
1379;DHT22;683;48.738;9.226;2023-08-01T09:29:48;16.80;99.90
1379;DHT22;683;48.738;9.226;2023-08-01T09:32:15;16.80;99.90
1379;DHT22;683;48.738;9.226;2023-08-01T09:34:45;16.80;99.90
1379;DHT22;683;48.738;9.226;2023-08-01T09:37:12;16.80;99.90
1379;DHT22;683;48.738;9.226;2023-08-01T09:39:42;16.90;99.90
1379;DHT22;683;48.738;9.226;2023-08-01T09:42:12;17.00;99.90
1379;DHT22;683;48.738;9.226;2023-08-01T09:44:45;17.10;99.90
1379;DHT22;683;48.738;9.226;2023-08-01T09:47:13;17.30;99.90
1379;DHT22;683;48.738;9.226;2023-08-01T09:49:47;17.40;99.90
1379;DHT22;683;48.738;9.226;2023-08-01T09:52:15;17.60;99.90
1379;DHT22;683;48.738;9.226;2023-08-01T09:54:43;17.70;99.90
1379;DHT22;683;48.738;9.226;2023-08-01T09:57:11;17.60;99.90
1379;DHT22;683;48.738;9.226;2023-08-01T09:59:38;17.60;99.90
1379;DHT22;683;48.738;9.226;2023-08-01T10:02:08;17.70;99.90
1379;DHT22;683;48.738;9.226;2023-08-01T10:04:39;17.90;99.90
1379;DHT22;683;48.738;9.226;2023-08-01T10:07:09;18.20;99.90
1379;DHT22;683;48.738;9.226;2023-08-01T10:09:38;18.50;99.90
1379;DHT22;683;48.738;9.226;2023-08-01T10:12:08;18.70;99.90
1379;DHT22;683;48.738;9.226;2023-08-01T10:14:37;18.70;99.90
1379;DHT22;683;48.738;9.226;2023-08-01T10:17:05;18.70;99.90
1379;DHT22;683;48.738;9.226;2023-08-01T10:19:32;18.70;99.90
1379;DHT22;683;48.738;9.226;2023-08-01T10:22:00;18.70;99.90
1379;DHT22;683;48.738;9.226;2023-08-01T10:24:28;18.70;99.90
1379;DHT22;683;48.738;9.226;2023-08-01T10:26:56;18.60;99.90
1379;DHT22;683;48.738;9.226;2023-08-01T10:29:36;18.70;99.90
1379;DHT22;683;48.738;9.226;2023-08-01T10:32:05;18.80;99.90
1379;DHT22;683;48.738;9.226;2023-08-01T10:34:33;18.70;99.90
1379;DHT22;683;48.738;9.226;2023-08-01T10:37:00;18.70;99.90
1379;DHT22;683;48.738;9.226;2023-08-01T10:39:30;18.60;99.90
1379;DHT22;683;48.738;9.226;2023-08-01T10:41:59;18.70;99.90
1379;DHT22;683;48.738;9.226;2023-08-01T10:44:27;18.90;99.90
1379;DHT22;683;48.738;9.226;2023-08-01T10:46:59;19.00;99.90
1379;DHT22;683;48.738;9.226;2023-08-01T10:49:35;19.20;99.90
1379;DHT22;683;48.738;9.226;2023-08-01T10:52:02;19.60;99.90
1379;DHT22;683;48.738;9.226;2023-08-01T10:54:30;19.90;99.90
1379;DHT22;683;48.738;9.226;2023-08-01T10:57:00;20.20;99.90
1379;DHT22;683;48.738;9.226;2023-08-01T10:59:27;20.80;99.90
1379;DHT22;683;48.738;9.226;2023-08-01T11:01:58;21.10;99.90
1379;DHT22;683;48.738;9.226;2023-08-01T11:04:25;21.20;99.90
1379;DHT22;683;48.738;9.226;2023-08-01T11:06:54;20.80;99.90
1379;DHT22;683;48.738;9.226;2023-08-01T11:09:24;20.50;99.90
1379;DHT22;683;48.738;9.226;2023-08-01T11:11:53;20.40;99.90
1379;DHT22;683;48.738;9.226;2023-08-01T11:14:21;20.30;99.90
1379;DHT22;683;48.738;9.226;2023-08-01T11:16:49;19.90;99.90
1379;DHT22;683;48.738;9.226;2023-08-01T11:19:22;19.80;99.90
1379;DHT22;683;48.738;9.226;2023-08-01T11:21:50;19.70;99.90
1379;DHT22;683;48.738;9.226;2023-08-01T11:24:19;19.70;99.90
1379;DHT22;683;48.738;9.226;2023-08-01T11:26:49;19.80;99.90
1379;DHT22;683;48.738;9.226;2023-08-01T11:29:17;19.90;99.90
1379;DHT22;683;48.738;9.226;2023-08-01T11:31:52;20.00;99.90
1379;DHT22;683;48.738;9.226;2023-08-01T11:34:21;20.10;99.90
1379;DHT22;683;48.738;9.226;2023-08-01T11:36:49;20.30;99.30
1379;DHT22;683;48.738;9.226;2023-08-01T11:39:16;20.40;99.30
1379;DHT22;683;48.738;9.226;2023-08-01T11:41:44;20.60;95.60
1379;DHT22;683;48.738;9.226;2023-08-01T11:44:12;20.70;95.90
1379;DHT22;683;48.738;9.226;2023-08-01T11:46:39;21.00;95.30
1379;DHT22;683;48.738;9.226;2023-08-01T11:49:07;21.30;94.50
1379;DHT22;683;48.738;9.226;2023-08-01T11:51:51;21.50;93.60
1379;DHT22;683;48.738;9.226;2023-08-01T11:54:18;21.70;93.70
1379;DHT22;683;48.738;9.226;2023-08-01T11:56:47;22.10;90.50
1379;DHT22;683;48.738;9.226;2023-08-01T11:59:15;22.30;90.50
1379;DHT22;683;48.738;9.226;2023-08-01T12:01:44;22.50;90.20
1379;DHT22;683;48.738;9.226;2023-08-01T12:04:12;22.70;85.40
1379;DHT22;683;48.738;9.226;2023-08-01T12:06:39;22.50;85.00
1379;DHT22;683;48.738;9.226;2023-08-01T12:09:10;22.20;85.70
1379;DHT22;683;48.738;9.226;2023-08-01T12:11:38;22.00;84.50
1379;DHT22;683;48.738;9.226;2023-08-01T12:14:09;21.80;87.10
1379;DHT22;683;48.738;9.226;2023-08-01T12:16:37;22.20;87.10
1379;DHT22;683;48.738;9.226;2023-08-01T12:19:05;22.70;84.60
1379;DHT22;683;48.738;9.226;2023-08-01T12:21:34;23.20;80.40
1379;DHT22;683;48.738;9.226;2023-08-01T12:24:02;23.30;79.60
1379;DHT22;683;48.738;9.226;2023-08-01T12:26:30;23.90;77.30
1379;DHT22;683;48.738;9.226;2023-08-01T12:28:58;24.40;76.40
1379;DHT22;683;48.738;9.226;2023-08-01T12:31:26;24.90;72.70
1379;DHT22;683;48.738;9.226;2023-08-01T12:33:53;25.20;73.80
1379;DHT22;683;48.738;9.226;2023-08-01T12:36:20;26.00;71.60
1379;DHT22;683;48.738;9.226;2023-08-01T12:38:48;27.40;66.40
1379;DHT22;683;48.738;9.226;2023-08-01T12:41:15;28.70;60.70
1379;DHT22;683;48.738;9.226;2023-08-01T12:43:44;28.60;57.90
1379;DHT22;683;48.738;9.226;2023-08-01T12:46:11;29.00;59.00
1379;DHT22;683;48.738;9.226;2023-08-01T12:48:38;29.60;55.90
1379;DHT22;683;48.738;9.226;2023-08-01T12:51:05;29.90;54.30
1379;DHT22;683;48.738;9.226;2023-08-01T12:53:32;29.60;54.70
1379;DHT22;683;48.738;9.226;2023-08-01T12:56:05;29.80;54.80
1379;DHT22;683;48.738;9.226;2023-08-01T12:58:32;29.80;54.00
1379;DHT22;683;48.738;9.226;2023-08-01T13:01:02;30.60;52.70
1379;DHT22;683;48.738;9.226;2023-08-01T13:03:30;30.70;51.90
1379;DHT22;683;48.738;9.226;2023-08-01T13:05:58;30.90;50.50
1379;DHT22;683;48.738;9.226;2023-08-01T13:08:25;31.20;50.40
1379;DHT22;683;48.738;9.226;2023-08-01T13:10:52;31.90;49.10
1379;DHT22;683;48.738;9.226;2023-08-01T13:13:19;32.30;46.40
1379;DHT22;683;48.738;9.226;2023-08-01T13:15:46;31.90;46.50
1379;DHT22;683;48.738;9.226;2023-08-01T13:18:18;31.10;46.80
1379;DHT22;683;48.738;9.226;2023-08-01T13:20:46;30.10;47.90
1379;DHT22;683;48.738;9.226;2023-08-01T13:23:13;29.30;48.90
1379;DHT22;683;48.738;9.226;2023-08-01T13:25:40;28.60;51.10
1379;DHT22;683;48.738;9.226;2023-08-01T13:28:11;28.70;50.00
1379;DHT22;683;48.738;9.226;2023-08-01T13:30:40;29.30;50.10
1379;DHT22;683;48.738;9.226;2023-08-01T13:33:07;29.60;49.30
1379;DHT22;683;48.738;9.226;2023-08-01T13:35:39;30.20;48.20
1379;DHT22;683;48.738;9.226;2023-08-01T13:38:06;30.40;47.70
1379;DHT22;683;48.738;9.226;2023-08-01T13:40:33;31.70;46.20
1379;DHT22;683;48.738;9.226;2023-08-01T13:43:01;32.00;44.60
1379;DHT22;683;48.738;9.226;2023-08-01T13:45:30;30.90;44.80
1379;DHT22;683;48.738;9.226;2023-08-01T13:47:57;29.30;47.40
1379;DHT22;683;48.738;9.226;2023-08-01T13:50:25;28.10;49.90
1379;DHT22;683;48.738;9.226;2023-08-01T13:52:54;27.40;52.30
1379;DHT22;683;48.738;9.226;2023-08-01T13:55:21;28.30;51.60
1379;DHT22;683;48.738;9.226;2023-08-01T13:57:48;30.20;48.60
1379;DHT22;683;48.738;9.226;2023-08-01T14:00:15;32.10;46.20
1379;DHT22;683;48.738;9.226;2023-08-01T14:02:42;33.80;44.40
1379;DHT22;683;48.738;9.226;2023-08-01T14:05:10;35.30;41.70
1379;DHT22;683;48.738;9.226;2023-08-01T14:07:37;36.40;39.10
1379;DHT22;683;48.738;9.226;2023-08-01T14:10:06;36.80;38.00
1379;DHT22;683;48.738;9.226;2023-08-01T14:12:34;37.40;35.60
1379;DHT22;683;48.738;9.226;2023-08-01T14:15:02;37.50;35.60
1379;DHT22;683;48.738;9.226;2023-08-01T14:17:29;37.90;34.50
1379;DHT22;683;48.738;9.226;2023-08-01T14:19:56;38.20;33.10
1379;DHT22;683;48.738;9.226;2023-08-01T14:22:23;37.80;34.50
1379;DHT22;683;48.738;9.226;2023-08-01T14:24:50;38.50;32.90
1379;DHT22;683;48.738;9.226;2023-08-01T14:27:19;38.50;32.10
1379;DHT22;683;48.738;9.226;2023-08-01T14:29:46;37.90;32.40
1379;DHT22;683;48.738;9.226;2023-08-01T14:32:16;35.80;35.20
1379;DHT22;683;48.738;9.226;2023-08-01T14:34:43;33.80;37.60
1379;DHT22;683;48.738;9.226;2023-08-01T14:37:10;32.60;39.10
1379;DHT22;683;48.738;9.226;2023-08-01T14:39:37;33.00;38.60
1379;DHT22;683;48.738;9.226;2023-08-01T14:42:05;33.80;36.50
1379;DHT22;683;48.738;9.226;2023-08-01T14:44:34;34.00;35.80
1379;DHT22;683;48.738;9.226;2023-08-01T14:47:01;34.60;35.50
1379;DHT22;683;48.738;9.226;2023-08-01T14:49:28;35.00;35.50
1379;DHT22;683;48.738;9.226;2023-08-01T14:51:55;35.90;34.40
1379;DHT22;683;48.738;9.226;2023-08-01T14:54:22;36.80;32.90
1379;DHT22;683;48.738;9.226;2023-08-01T14:56:50;37.30;32.30
1379;DHT22;683;48.738;9.226;2023-08-01T14:59:18;36.80;31.20
1379;DHT22;683;48.738;9.226;2023-08-01T15:01:46;35.10;33.10
1379;DHT22;683;48.738;9.226;2023-08-01T15:04:14;34.30;35.20
1379;DHT22;683;48.738;9.226;2023-08-01T15:06:41;35.10;34.30
1379;DHT22;683;48.738;9.226;2023-08-01T15:09:08;36.20;34.10
1379;DHT22;683;48.738;9.226;2023-08-01T15:11:36;37.50;31.60
1379;DHT22;683;48.738;9.226;2023-08-01T15:14:03;38.20;30.40
1379;DHT22;683;48.738;9.226;2023-08-01T15:16:30;38.40;30.00
1379;DHT22;683;48.738;9.226;2023-08-01T15:18:58;39.10;30.10
1379;DHT22;683;48.738;9.226;2023-08-01T15:21:26;39.70;29.10
1379;DHT22;683;48.738;9.226;2023-08-01T15:23:54;39.40;28.90
1379;DHT22;683;48.738;9.226;2023-08-01T15:26:21;39.40;29.10
1379;DHT22;683;48.738;9.226;2023-08-01T15:28:49;38.40;29.50
1379;DHT22;683;48.738;9.226;2023-08-01T15:31:16;36.60;31.80
1379;DHT22;683;48.738;9.226;2023-08-01T15:33:43;34.90;33.60
1379;DHT22;683;48.738;9.226;2023-08-01T15:36:11;33.10;35.90
1379;DHT22;683;48.738;9.226;2023-08-01T15:38:39;31.60;38.10
1379;DHT22;683;48.738;9.226;2023-08-01T15:41:06;32.00;39.00
1379;DHT22;683;48.738;9.226;2023-08-01T15:43:35;33.40;37.60
1379;DHT22;683;48.738;9.226;2023-08-01T15:46:03;33.10;37.20
1379;DHT22;683;48.738;9.226;2023-08-01T15:48:31;32.20;38.40
1379;DHT22;683;48.738;9.226;2023-08-01T15:50:58;32.10;38.40
1379;DHT22;683;48.738;9.226;2023-08-01T15:53:26;31.90;38.00
1379;DHT22;683;48.738;9.226;2023-08-01T15:55:55;30.00;40.20
1379;DHT22;683;48.738;9.226;2023-08-01T15:58:23;28.30;42.80
1379;DHT22;683;48.738;9.226;2023-08-01T16:00:50;27.50;44.70
1379;DHT22;683;48.738;9.226;2023-08-01T16:03:17;27.80;45.30
1379;DHT22;683;48.738;9.226;2023-08-01T16:05:45;27.80;44.80
1379;DHT22;683;48.738;9.226;2023-08-01T16:08:12;27.30;45.60
1379;DHT22;683;48.738;9.226;2023-08-01T16:10:41;26.60;46.40
1379;DHT22;683;48.738;9.226;2023-08-01T16:13:09;25.80;48.00
1379;DHT22;683;48.738;9.226;2023-08-01T16:15:37;26.50;47.90
1379;DHT22;683;48.738;9.226;2023-08-01T16:18:05;28.60;45.30
1379;DHT22;683;48.738;9.226;2023-08-01T16:20:34;30.70;41.70